Cumbernauld, United Kingdom

1:51 PM GMT on March 23, 2017 (GMT +0000)
Carrickstone Vale | | Change Station

Elev 450 ft 55.96 °N, 3.99 °W | Updated 2 seconds ago

Mostly Cloudy
Mostly Cloudy
45.3 °F
Feels Like 40 °F
N
10.5
Wind Variable Wind from East
Gusts 13.6 mph

Today
High -- | Low -- °F
--% Chance of Precip.
Yesterday
High -- | Low -- °F
Precip. -- in
Pressure 30.33 in
Visibility 6.2 miles
Clouds Mostly Cloudy 2900 ft
Windchill 40 °F
Dew Point 33 °F
Humidity 61%
Rainfall 0.00 in
Snow Depth Not available.
6:09 AM 6:36 PM
Waning Crescent, 23% visible
METAR EGPF 231320Z AUTO 08012G27KT 030V130 9999 BKN029 08/02 Q1027
Pressure 30.33 in
Visibility 6.2 miles
Clouds Mostly Cloudy 2900 ft
Windchill 40 °F
Dew Point 33 °F
Humidity 61%
Rainfall 0.00 in
Snow Depth Not available.
6:09 AM 6:36 PM
Waning Crescent, 23% visible
METAR EGPF 231320Z AUTO 08012G27KT 030V130 9999 BKN029 08/02 Q1027

Get Severe Weather Alerts

Thanks for signing up!

Be on the lookout for a verification email in your inbox.

You'll start receiving the daily forecast at 8 AM.

×

10-Day Weather Forecast

×

Almanac

Astronomy

Mar. 23, 2017 Rise Set
Actual Time
Civil Twilight
Nautical Twilight
Astronomical Twilight
Moon
Length of Visible Light
Length of Day
Tomorrow will be .
, % of the Moon is Illuminated

Today's Extremes

Country Highs Country Lows

Community

WunderPhotos

Upload Photos

1,962,540 photos uploaded!

WunderBlog® & News

Nearby

Air Quality

  Air Quality AQ Index Pollutant
Not available.

Snow Depth

Station Depth Elevation

Earthquake Activity

City Distance Mag. Time & Date
Minimum magnitude displayed is 2.5.

Earthquake Activity

City Distance Mag. Time & Date
Minimum magnitude displayed is 2.5.

Coastal Water Temperatures

Place Temperature

Stations

Nearby Weather Stations

Station Location Temp. Windchill Dew Point Humidity Wind Precip. Elev Updated Type